ADDS METAR Data INFO
IDs: Format: Raw Decoded Include TAF

Data at: 0937 UTC 25 Nov 2017

KDUX 250915Z AUTO 00000KT 10SM CLR 06/01 A3006 RMK AO2 T00590009
KDUX 250855Z AUTO 03006KT 10SM CLR 06/01 A3006 RMK AO2 T00580011
KDUX 250835Z AUTO 01005KT 10SM CLR 07/01 A3006 RMK AO2 T00740012
KDUX 250815Z AUTO 04010KT 10SM CLR 10/02 A3004 RMK AO2 T00990016
KDUX 250755Z AUTO 04010KT 10SM CLR 09/01 A3003 RMK AO2 T00870014
KDUX 250735Z AUTO 02008KT 10SM CLR 10/02 A3003 RMK AO2 T00950015
KDUX 250715Z AUTO 03011KT 10SM CLR 10/02 A3003 RMK AO2 T01010015
KDUX 250655Z AUTO 03013KT 10SM CLR 10/01 A3003 RMK AO2 T01030013
KDUX 250635Z AUTO 03015G19KT 10SM CLR 10/01 A3003 RMK AO2 T01030012
KDUX 250615Z AUTO 03014G18KT 10SM CLR 11/01 A3002 RMK AO2 T01100011
KDUX 250555Z AUTO 03013G20KT 10SM CLR 12/01 A3000 RMK AO2 T01160010 10176 20091 402510077
KDUX 250535Z AUTO 03013G20KT 10SM CLR 12/01 A3000 RMK AO2 T01220008
KDUX 250515Z AUTO 03014G19KT 10SM CLR 12/01 A2998 RMK AO2 T01200006
KDUX 250455Z AUTO 03013KT 10SM CLR 13/01 A2997 RMK AO2 T01250006
KDUX 250435Z AUTO 03013G17KT 10SM CLR 12/01 A2996 RMK AO2 T01150006
KDUX 250415Z AUTO 02007KT 10SM CLR 09/00 A2995 RMK AO2 T00920000
KDUX 250400Z AUTO 36008KT 10SM CLR 10/00 A2993 RMK AO2 T01011002
KDUX 250335Z AUTO 03010G14KT 10SM CLR 11/00 A2991 RMK AO2 T01141005
KDUX 250315Z AUTO 02011KT 10SM CLR 11/M01 A2989 RMK AO2 T01131010
KDUX 250255Z AUTO 01008KT 10SM CLR 11/M01 A2987 RMK AO2 T01061011
KDUX 250235Z AUTO 01007KT 10SM CLR 10/M01 A2986 RMK AO2 T00991011
KDUX 250215Z AUTO 01007KT 10SM CLR 10/00 A2984 RMK AO2 T00990000
KDUX 250155Z AUTO 34007KT 10SM CLR 11/00 A2983 RMK AO2 T01100003
KDUX 250135Z AUTO 36005KT 10SM CLR 12/00 A2981 RMK AO2 T01190002
KDUX 250115Z AUTO 01008KT 10SM CLR 12/01 A2980 RMK AO2 T01180005
KDUX 250055Z AUTO 25007KT 10SM CLR 12/01 A2979 RMK AO2 T01150010
KDUX 250035Z AUTO 26006KT 10SM CLR 13/02 A2979 RMK AO2 T01320017
KDUX 250015Z AUTO 24006KT 10SM CLR 17/02 A2978 RMK AO2 T01660021
KDUX 242355Z AUTO 25005KT 10SM CLR 18/02 A2977 RMK AO2 T01750019 10251 20174
KDUX 242335Z AUTO 22006KT 10SM CLR 18/03 A2976 RMK AO2 T01770030
KDUX 242315Z AUTO 22004KT 10SM CLR 19/03 A2976 RMK AO2 T01940034
KDUX 242255Z AUTO 22004KT 10SM CLR 21/01 A2975 RMK AO2 T02140008
KDUX 242235Z AUTO 21004KT 10SM CLR 22/00 A2975 RMK AO2 T02200000
KDUX 242215Z AUTO 20004KT 10SM CLR 24/M02 A2974 RMK AO2 T02361019
KDUX 242155Z AUTO 19004KT 10SM CLR 25/M01 A2974 RMK AO2 T02481010
KDUX 242135Z AUTO 21006KT 10SM CLR 25/01 A2975 RMK AO2 T02480014
KDUX 242115Z AUTO 24007KT 10SM CLR 25/01 A2975 RMK AO2 T02460009
KDUX 242055Z AUTO 23007KT 10SM CLR 25/02 A2975 RMK AO2 T02450023
KDUX 242035Z AUTO 23005KT 10SM CLR 25/00 A2976 RMK AO2 T02491001
KDUX 242015Z AUTO 24003KT 10SM CLR 24/M01 A2975 RMK AO2 T02421011
KDUX 241955Z AUTO 22004KT 10SM CLR 24/00 A2975 RMK AO2 T02411001
KDUX 241935Z AUTO 00000KT 10SM CLR 24/00 A2976 RMK AO2 T02430000
KDUX 241915Z AUTO 25005KT 10SM CLR 24/00 A2977 RMK AO2 T02401004
KDUX 241855Z AUTO 25006KT 10SM CLR 24/00 A2978 RMK AO2 T02351001
KDUX 241835Z AUTO 27003KT 10SM CLR 23/00 A2979 RMK AO2 T02300001
KDUX 241815Z AUTO 26004KT 10SM CLR 23/00 A2979 RMK AO2 T02260000
KDUX 241755Z AUTO 25006KT 10SM CLR 22/00 A2980 RMK AO2 T02211003 10222 20077
KDUX 241735Z AUTO 26008KT 10SM CLR 22/00 A2981 RMK AO2 T02160003
KDUX 241715Z AUTO 27008KT 10SM CLR 21/00 A2982 RMK AO2 T02061001
KDUX 241655Z AUTO 27007KT 10SM CLR 19/00 A2982 RMK AO2 T01930004
KDUX 241635Z AUTO 27009KT 10SM CLR 18/00 A2983 RMK AO2 T01830000
KDUX 241615Z AUTO 27011KT 10SM CLR 18/00 A2982 RMK AO2 T01781005
KDUX 241555Z AUTO 25008KT 10SM CLR 17/00 A2981 RMK AO2 T01710004
KDUX 241535Z AUTO 27011KT 10SM CLR 16/00 A2983 RMK AO2 T01620001
KDUX 241515Z AUTO 27011KT 10SM CLR 13/00 A2982 RMK AO2 T01340004
KDUX 241455Z AUTO 28008KT 10SM CLR 11/00 A2982 RMK AO2 T01070000
KDUX 241435Z AUTO 26011KT 10SM CLR 09/00 A2982 RMK AO2 T00871001
KDUX 241415Z AUTO 26013KT 10SM CLR 08/00 A2983 RMK AO2 T00811003
KDUX 241355Z AUTO 25012KT 10SM CLR 08/00 A2982 RMK AO2 T00791005
KDUX 241335Z AUTO 25014KT 10SM CLR 09/00 A2982 RMK AO2 T00861003
KDUX 241315Z AUTO 25012KT 10SM CLR 09/00 A2982 RMK AO2 T00861003
KDUX 241255Z AUTO 25011KT 10SM CLR 08/00 A2982 RMK AO2 T00811004
KDUX 241235Z AUTO 24013KT 10SM CLR 08/00 A2982 RMK AO2 T00821005
KDUX 241215Z AUTO 25013KT 10SM CLR 09/00 A2983 RMK AO2 T00871005
KDUX 241155Z AUTO 25014KT 10SM CLR 08/00 A2983 RMK AO2 T00841005 10114 20080
KDUX 241135Z AUTO 24012KT 10SM CLR 08/M01 A2983 RMK AO2 T00831008
KDUX 241115Z AUTO 24011KT 10SM CLR 09/M01 A2984 RMK AO2 T00881010
KDUX 241055Z AUTO 24013KT 10SM CLR 08/M01 A2984 RMK AO2 T00811012
KDUX 241035Z AUTO 24013KT 10SM CLR 09/M01 A2985 RMK AO2 T00881012
KDUX 241015Z AUTO 23009KT 10SM CLR 09/M01 A2986 RMK AO2 T00851011
KDUX 240955Z AUTO 23011KT 10SM CLR 09/M01 A2988 RMK AO2 T00941010
KDUX 240935Z AUTO 23013KT 10SM CLR 09/M01 A2988 RMK AO2 T00871010
KDUX 240915Z AUTO 23014KT 10SM CLR 09/M01 A2989 RMK AO2 T00861008
KDUX 240855Z AUTO 23011KT 10SM CLR 09/M01 A2990 RMK AO2 T00891010
KDUX 240835Z AUTO 23013KT 10SM CLR 09/M01 A2991 RMK AO2 T00911010
KDUX 240815Z AUTO 23012KT 10SM CLR 08/M01 A2991 RMK AO2 T00831006
KDUX 240755Z AUTO 23011KT 10SM CLR 08/M01 A2992 RMK AO2 T00831007
KDUX 240735Z AUTO 24011KT 10SM CLR 09/00 A2993 RMK AO2 T00911005
KDUX 240715Z AUTO 23010KT 10SM CLR 09/00 A2995 RMK AO2 T00871003
KDUX 240655Z AUTO 23010KT 10SM CLR 10/00 A2995 RMK AO2 T01001005
KDUX 240635Z AUTO 23010KT 10SM CLR 11/00 A2995 RMK AO2 T01051005
KDUX 240615Z AUTO 23010KT 10SM CLR 11/00 A2997 RMK AO2 T01131003
KDUX 240555Z AUTO 23009KT 10SM CLR 11/00 A2997 RMK AO2 T01081001 10162 20074 402270055
KDUX 240535Z AUTO 22010KT 10SM CLR 11/00 A2998 RMK AO2 T01130000
KDUX 240515Z AUTO 22011KT 10SM CLR 11/01 A2998 RMK AO2 T01090005
KDUX 240455Z AUTO 21011KT 10SM CLR 11/01 A3000 RMK AO2 T01080006
KDUX 240435Z AUTO 21010KT 10SM CLR 10/01 A3000 RMK AO2 T00980011
KDUX 240415Z AUTO 21008KT 10SM CLR 09/01 A3001 RMK AO2 T00870013
KDUX 240355Z AUTO 21008KT 10SM CLR 10/02 A3001 RMK AO2 T00960018
KDUX 240335Z AUTO 21009KT 10SM CLR 10/02 A3002 RMK AO2 T00950018
KDUX 240315Z AUTO 21008KT 10SM CLR 09/02 A3003 RMK AO2 T00940017
KDUX 240255Z AUTO 21009KT 10SM CLR 09/02 A3003 RMK AO2 T00870015
KDUX 240235Z AUTO 21008KT 10SM CLR 09/01 A3004 RMK AO2 T00880013
KDUX 240215Z AUTO 21008KT 10SM CLR 08/02 A3005 RMK AO2 T00830016
KDUX 240155Z AUTO 19007KT 10SM CLR 08/02 A3005 RMK AO2 T00810015
KDUX 240135Z AUTO 24007KT 10SM CLR 12/02 A3004 RMK AO2 T01200019
KDUX 240115Z AUTO 24007KT 10SM CLR 11/03 A3005 RMK AO2 T01080025
KDUX 240055Z AUTO 25008KT 10SM CLR 11/03 A3005 RMK AO2 T01130029
KDUX 240035Z AUTO 22007KT 10SM CLR 13/03 A3006 RMK AO2 T01330030
KDUX 240015Z AUTO 22006KT 10SM CLR 14/04 A3006 RMK AO2 T01350041
KDUX 232355Z AUTO 22006KT 10SM CLR 16/04 A3006 RMK AO2 T01620043 10227 20162
KDUX 232335Z AUTO 22004KT 10SM CLR 17/04 A3006 RMK AO2 T01720044
KDUX 232315Z AUTO 21004KT 10SM CLR 18/04 A3006 RMK AO2 T01790041
KDUX 232255Z AUTO 22005KT 10SM CLR 19/05 A3006 RMK AO2 T01900045
KDUX 232235Z AUTO 22004KT 10SM CLR 20/05 A3007 RMK AO2 T01960051
KDUX 232215Z AUTO 23005KT 10SM CLR 20/04 A3007 RMK AO2 T02030042
KDUX 232155Z AUTO 22007KT 10SM CLR 21/04 A3007 RMK AO2 T02120038